createdAt,value
2018-08-03T00:00:39.860Z,16.00
2018-08-03T00:05:35.796Z,18.90
2018-08-03T00:10:31.337Z,18.43
2018-08-03T00:15:26.692Z,18.67
2018-08-03T00:20:21.948Z,20.17
2018-08-03T00:25:17.105Z,18.97
2018-08-03T00:30:11.961Z,20.57
2018-08-03T00:35:07.178Z,20.97
2018-08-03T00:40:03.040Z,21.23
2018-08-03T00:44:58.304Z,21.00
2018-08-03T00:49:53.327Z,22.50
2018-08-03T00:54:48.646Z,21.37
2018-08-03T00:59:44.096Z,21.27
2018-08-03T01:04:39.035Z,21.10
2018-08-03T01:09:35.402Z,21.90
2018-08-03T01:14:30.880Z,20.40
2018-08-03T01:19:26.258Z,19.73
2018-08-03T01:24:21.558Z,21.57
2018-08-03T01:29:16.982Z,20.07
2018-08-03T01:34:11.755Z,21.87
2018-08-03T01:39:08.456Z,21.33
2018-08-03T01:44:03.666Z,23.33
2018-08-03T01:48:59.225Z,22.40
2018-08-03T01:53:54.385Z,23.43
2018-08-03T01:58:57.048Z,24.50
2018-08-03T02:03:59.548Z,23.90
2018-08-03T02:08:54.644Z,22.17
2018-08-03T02:13:50.480Z,25.17
2018-08-03T02:18:46.517Z,23.90
2018-08-03T02:23:41.648Z,24.70
2018-08-03T02:28:44.748Z,24.90
2018-08-03T02:33:47.965Z,24.60
2018-08-03T02:38:51.010Z,25.73
2018-08-03T02:43:46.309Z,27.33
2018-08-03T02:48:41.833Z,25.60
2018-08-03T02:53:37.197Z,26.23
2018-08-03T02:58:32.313Z,25.00
2018-08-03T03:03:28.218Z,24.90
2018-08-03T03:08:23.528Z,26.83
2018-08-03T03:13:18.808Z,24.27
2018-08-03T03:18:37.188Z,25.00
2018-08-03T03:23:39.213Z,25.00
2018-08-03T03:28:34.120Z,23.17
2018-08-03T03:33:29.098Z,23.40
2018-08-03T03:38:24.430Z,23.73
2018-08-03T03:43:19.771Z,24.40
2018-08-03T03:48:15.045Z,25.73
2018-08-03T03:53:10.369Z,24.97
2018-08-03T03:58:05.648Z,26.27
2018-08-03T04:03:08.144Z,23.77
2018-08-03T04:08:04.546Z,25.30
2018-08-03T04:13:00.014Z,23.57
2018-08-03T04:17:55.433Z,22.10
2018-08-03T04:22:52.017Z,20.30
2018-08-03T04:27:50.592Z,21.33
2018-08-03T04:32:45.394Z,19.47
2018-08-03T04:37:40.397Z,19.43
2018-08-03T04:42:35.125Z,18.70
2018-08-03T04:47:44.089Z,18.00
2018-08-03T04:52:39.826Z,18.20
2018-08-03T04:57:34.518Z,15.63
2018-08-03T05:02:29.760Z,15.27
2018-08-03T05:07:25.145Z,12.93
2018-08-03T05:12:21.496Z,14.93
2018-08-03T05:17:16.521Z,13.80
2018-08-03T05:22:16.037Z,14.77
2018-08-03T05:27:12.102Z,16.33
2018-08-03T05:32:07.667Z,14.57
2018-08-03T05:37:05.194Z,15.60
2018-08-03T05:42:00.345Z,12.47
2018-08-03T05:46:55.748Z,12.37
2018-08-03T05:51:50.904Z,14.20
2018-08-03T05:56:46.639Z,13.67
2018-08-03T06:01:42.278Z,11.30
2018-08-03T06:06:36.939Z,12.23
2018-08-03T06:11:32.348Z,12.03
2018-08-03T06:16:34.463Z,11.80
2018-08-03T06:21:31.119Z,12.07
2018-08-03T06:26:26.425Z,12.50
2018-08-03T06:31:21.613Z,11.87
2018-08-03T06:36:19.516Z,12.80
2018-08-03T06:41:39.484Z,14.40
2018-08-03T06:47:04.706Z,11.97
2018-08-03T06:52:29.924Z,11.97
2018-08-03T06:57:32.563Z,13.57
2018-08-03T07:02:27.708Z,12.80
2018-08-03T07:07:22.865Z,12.90
2018-08-03T07:12:18.150Z,13.70
2018-08-03T07:17:13.714Z,12.87
2018-08-03T07:22:08.829Z,11.40
2018-08-03T07:27:05.921Z,13.80
2018-08-03T07:32:01.301Z,12.17
2018-08-03T07:36:56.384Z,9.80
2018-08-03T07:41:51.657Z,9.43
2018-08-03T07:46:47.008Z,10.70
2018-08-03T07:51:42.133Z,8.67
2018-08-03T07:56:44.992Z,8.70
2018-08-03T08:01:40.303Z,9.53
2018-08-03T08:06:36.335Z,9.60
2018-08-03T08:11:31.236Z,9.47
2018-08-03T08:16:26.179Z,8.83
2018-08-03T08:21:21.601Z,9.70
2018-08-03T08:26:16.809Z,9.63
2018-08-03T08:31:12.011Z,8.90
2018-08-03T08:36:07.922Z,9.43
2018-08-03T08:41:11.768Z,9.00
2018-08-03T08:46:14.865Z,9.00
2018-08-03T08:51:11.184Z,9.23
2018-08-03T08:56:07.775Z,8.67
2018-08-03T09:01:04.005Z,9.27
2018-08-03T09:05:59.899Z,10.23
2018-08-03T09:11:02.891Z,9.68
2018-08-03T09:15:59.385Z,11.25
2018-08-03T09:20:54.215Z,11.47
2018-08-03T09:25:50.417Z,12.43
2018-08-03T09:30:45.697Z,12.07
2018-08-03T09:35:40.195Z,11.50
2018-08-03T09:40:35.161Z,10.83
2018-08-03T09:45:30.654Z,11.23
2018-08-03T09:50:25.819Z,10.93
2018-08-03T09:55:21.043Z,10.70
2018-08-03T10:00:17.208Z,10.15
2018-08-03T10:05:12.503Z,10.32
2018-08-03T10:10:11.680Z,11.03
2018-08-03T10:15:14.431Z,11.33
2018-08-03T10:20:09.701Z,11.77
2018-08-03T10:25:06.603Z,12.17
2018-08-03T10:30:02.756Z,12.00
2018-08-03T10:34:58.386Z,11.17
2018-08-03T10:39:53.762Z,11.07
2018-08-03T10:44:48.616Z,10.97
2018-08-03T10:49:43.818Z,11.23
2018-08-03T10:54:46.758Z,11.40
2018-08-03T10:59:42.018Z,10.23
2018-08-03T11:04:37.642Z,11.30
2018-08-03T11:09:32.702Z,10.13
2018-08-03T11:14:28.384Z,9.70
2018-08-03T11:19:24.607Z,10.60
2018-08-03T11:24:19.591Z,9.97
2018-08-03T11:29:14.654Z,9.90
2018-08-03T11:34:10.698Z,10.60
2018-08-03T11:39:17.880Z,12.30
2018-08-03T11:44:13.093Z,12.60
2018-08-03T11:49:09.062Z,10.73
2018-08-03T11:54:05.137Z,12.77
2018-08-03T11:59:00.533Z,9.87
2018-08-03T12:04:03.321Z,10.17
2018-08-03T12:09:05.658Z,9.80
2018-08-03T12:14:01.365Z,10.60
2018-08-03T12:18:58.860Z,19.17
2018-08-03T12:23:54.466Z,15.57
2018-08-03T12:28:49.792Z,11.33
2018-08-03T12:33:44.667Z,9.70
2018-08-03T12:38:39.671Z,11.10
2018-08-03T12:43:34.968Z,9.87
2018-08-03T12:48:30.628Z,9.57
2018-08-03T12:53:25.937Z,10.30
2018-08-03T12:58:20.993Z,10.10
2018-08-03T13:03:16.235Z,10.00
2018-08-03T13:08:12.251Z,9.93
2018-08-03T13:13:08.156Z,9.80
2018-08-03T13:18:03.630Z,9.67
2018-08-03T13:23:01.701Z,8.90
2018-08-03T13:27:56.902Z,9.40
2018-08-03T13:32:52.360Z,9.77
2018-08-03T13:37:47.439Z,10.97
2018-08-03T13:42:42.798Z,11.27
2018-08-03T13:47:38.100Z,25.77
2018-08-03T13:52:33.741Z,11.20
2018-08-03T13:57:29.053Z,12.70
2018-08-03T14:02:29.009Z,10.90
2018-08-03T14:07:26.573Z,10.50
2018-08-03T14:12:21.662Z,12.87
2018-08-03T14:17:16.742Z,10.10
2018-08-03T14:22:11.912Z,10.30
2018-08-03T14:27:08.437Z,9.03
2018-08-03T14:32:06.515Z,9.77
2018-08-03T14:37:02.049Z,9.87
2018-08-03T14:41:57.248Z,10.37
2018-08-03T14:46:52.536Z,8.77
2018-08-03T14:51:55.304Z,9.07
2018-08-03T14:56:57.953Z,9.90
2018-08-03T15:01:53.220Z,9.60
2018-08-03T15:06:48.964Z,10.70
2018-08-03T15:11:44.119Z,8.90
2018-08-03T15:16:39.175Z,9.60
2018-08-03T15:21:34.529Z,10.00
2018-08-03T15:26:29.708Z,9.17
2018-08-03T15:31:41.486Z,9.53
2018-08-03T15:37:07.486Z,8.87
2018-08-03T15:42:34.654Z,9.03
2018-08-03T15:47:39.509Z,8.90
2018-08-03T15:52:34.558Z,9.30
2018-08-03T15:57:29.711Z,8.70
2018-08-03T16:02:24.887Z,9.90
2018-08-03T16:07:19.924Z,8.83
2018-08-03T16:12:15.027Z,10.03
2018-08-03T16:17:10.282Z,10.20
2018-08-03T16:22:10.308Z,9.20
2018-08-03T16:27:08.993Z,10.50
2018-08-03T16:32:06.016Z,8.97
2018-08-03T16:37:00.985Z,9.80
2018-08-03T16:42:04.059Z,10.00
2018-08-03T16:46:59.827Z,11.77
2018-08-03T16:51:55.017Z,9.53
2018-08-03T16:56:50.490Z,9.80
2018-08-03T17:01:45.748Z,8.87
2018-08-03T17:06:42.265Z,9.60
2018-08-03T17:11:37.529Z,10.03
2018-08-03T17:16:32.685Z,10.20
2018-08-03T17:21:28.023Z,10.47
2018-08-03T17:26:22.884Z,9.83
2018-08-03T17:31:18.172Z,9.90
2018-08-03T17:36:13.199Z,9.40
2018-08-03T17:41:07.830Z,9.33
2018-08-03T17:46:10.230Z,10.13
2018-08-03T17:51:06.092Z,10.47
2018-08-03T17:56:01.846Z,9.80
2018-08-03T18:00:56.535Z,12.77
2018-08-03T18:05:51.502Z,9.83
2018-08-03T18:10:47.102Z,12.83
2018-08-03T18:15:42.273Z,13.33
2018-08-03T18:20:37.760Z,11.30
2018-08-03T18:25:33.409Z,10.60
2018-08-03T18:30:29.757Z,13.23
2018-08-03T18:35:24.265Z,13.53
2018-08-03T18:40:19.436Z,11.00
2018-08-03T18:45:14.639Z,12.30
2018-08-03T18:50:09.988Z,11.80
2018-08-03T18:55:06.949Z,10.20
2018-08-03T19:00:02.794Z,13.50
2018-08-03T19:04:57.811Z,10.93
2018-08-03T19:09:53.142Z,9.70
2018-08-03T19:14:48.436Z,10.30
2018-08-03T19:19:43.991Z,10.07
2018-08-03T19:24:39.334Z,11.70
2018-08-03T19:29:34.038Z,10.50
2018-08-03T19:34:28.548Z,11.70
2018-08-03T19:39:24.982Z,10.83
2018-08-03T19:44:23.508Z,14.47
2018-08-03T19:49:19.283Z,10.00
2018-08-03T19:54:14.340Z,11.10
2018-08-03T19:59:09.646Z,9.67
2018-08-03T20:04:06.465Z,10.60
2018-08-03T20:09:01.559Z,9.87
2018-08-03T20:13:56.680Z,9.03
2018-08-03T20:18:59.353Z,10.00
2018-08-03T20:24:02.590Z,10.07
2018-08-03T20:29:05.774Z,10.00
2018-08-03T20:34:08.827Z,10.03
2018-08-03T20:39:05.218Z,11.23
2018-08-03T20:44:16.068Z,10.20
2018-08-03T20:49:35.590Z,10.20
2018-08-03T20:55:01.768Z,12.33
2018-08-03T21:00:01.207Z,10.00
2018-08-03T21:04:57.048Z,8.57
2018-08-03T21:09:52.584Z,7.70
2018-08-03T21:14:47.899Z,9.93
2018-08-03T21:19:51.026Z,10.27
2018-08-03T21:24:54.146Z,9.80
2018-08-03T21:29:57.508Z,9.47
2018-08-03T21:35:00.707Z,10.73
2018-08-03T21:39:55.796Z,10.10
2018-08-03T21:44:51.056Z,8.97
2018-08-03T21:49:46.684Z,19.83
2018-08-03T21:54:42.021Z,7.90
2018-08-03T21:59:51.484Z,8.80
2018-08-03T22:04:53.825Z,8.10
2018-08-03T22:09:48.885Z,8.57
2018-08-03T22:14:44.033Z,8.60
2018-08-03T22:19:39.198Z,10.10
2018-08-03T22:24:34.252Z,8.63
2018-08-03T22:29:29.883Z,7.37
2018-08-03T22:34:24.933Z,5.47
2018-08-03T22:39:20.069Z,8.00
2018-08-03T22:44:15.084Z,7.50
2018-08-03T22:49:10.322Z,8.07
2018-08-03T22:54:04.983Z,7.90
2018-08-03T22:59:00.046Z,9.20
2018-08-03T23:03:55.268Z,8.17
2018-08-03T23:08:51.190Z,7.60
2018-08-03T23:13:46.416Z,5.90
2018-08-03T23:18:42.485Z,6.03
2018-08-03T23:23:37.804Z,5.27
2018-08-03T23:28:32.836Z,4.67
2018-08-03T23:33:28.259Z,4.97
2018-08-03T23:38:23.321Z,5.90
2018-08-03T23:43:18.704Z,5.87
2018-08-03T23:48:13.979Z,5.57
2018-08-03T23:53:09.452Z,6.30
2018-08-03T23:58:05.455Z,9.23
